Time;durP1;ratioP1;P1;durP2;ratioP2;P2;SDS_P1;SDS_P2;PMS_P1;PMS_P2;Temp;Humidity;BMP_temperature;BMP_pressure;BME280_temperature;BME280_humidity;BME280_pressure;Samples;Min_cycle;Max_cycle;Signal;HPM_P1;HPM_P2
2023/01/09 00:01:13;;;;;;;10.20;3.10;;;;;;;;;;5032970;28;20214;-67
2023/01/09 00:03:40;;;;;;;2.75;2.10;;;;;;;;;;5033449;28;20183;-67
2023/01/09 00:06:07;;;;;;;4.25;2.47;;;;;;;;;;5033007;28;20231;-67
2023/01/09 00:08:35;;;;;;;4.05;2.25;;;;;;;;;;5033313;28;20201;-67
2023/01/09 00:11:02;;;;;;;3.35;2.00;;;;;;;;;;5033424;28;20265;-67
2023/01/09 00:13:29;;;;;;;3.10;2.58;;;;;;;;;;5033335;28;20196;-67
2023/01/09 00:15:56;;;;;;;2.88;2.20;;;;;;;;;;5032902;28;20290;-67
2023/01/09 00:18:25;;;;;;;5.95;2.40;;;;;;;;;;5033276;28;20570;-67
2023/01/09 00:20:52;;;;;;;2.72;2.50;;;;;;;;;;5033205;28;20199;-67
2023/01/09 00:23:19;;;;;;;3.85;2.70;;;;;;;;;;5032918;28;20210;-67
2023/01/09 00:25:46;;;;;;;4.45;2.47;;;;;;;;;;5033765;28;20282;-67
2023/01/09 00:28:14;;;;;;;3.67;2.97;;;;;;;;;;5032970;28;20230;-67
2023/01/09 00:30:41;;;;;;;3.10;2.78;;;;;;;;;;5032747;28;20221;-67
2023/01/09 00:33:09;;;;;;;6.28;2.65;;;;;;;;;;5033206;28;20565;-67
2023/01/09 00:35:37;;;;;;;9.10;2.50;;;;;;;;;;5033008;28;20199;-67
2023/01/09 00:38:05;;;;;;;8.15;2.85;;;;;;;;;;5033101;28;20448;-67
2023/01/09 00:40:32;;;;;;;5.15;2.75;;;;;;;;;;5033363;28;20205;-67
2023/01/09 00:42:59;;;;;;;4.13;3.20;;;;;;;;;;5033034;28;20195;-67
2023/01/09 00:45:28;;;;;;;4.10;3.70;;;;;;;;;;5033098;28;20224;-67
2023/01/09 00:47:57;;;;;;;4.88;2.30;;;;;;;;;;5032931;28;20195;-67
2023/01/09 00:50:28;;;;;;;3.35;2.75;;;;;;;;;;5033057;28;20586;-67
2023/01/09 00:52:57;;;;;;;2.90;2.70;;;;;;;;;;5032975;28;20188;-67
2023/01/09 00:55:25;;;;;;;3.30;2.67;;;;;;;;;;5035358;28;20191;-67
2023/01/09 00:57:52;;;;;;;5.50;2.80;;;;;;;;;;5036437;28;20227;-67
2023/01/09 01:00:19;;;;;;;4.72;2.72;;;;;;;;;;5036983;28;20199;-67
2023/01/09 01:02:47;;;;;;;7.00;4.10;;;;;;;;;;5036427;28;20195;-67
2023/01/09 01:08:00;;;;;;;5.82;3.28;;;;;;;;;;5036239;28;20182;-67
2023/01/09 01:10:28;;;;;;;4.27;2.90;;;;;;;;;;5036282;28;20239;-67
2023/01/09 01:12:56;;;;;;;3.58;2.65;;;;;;;;;;5036443;28;20460;-67
2023/01/09 01:15:24;;;;;;;2.78;2.58;;;;;;;;;;5036513;28;20203;-67
2023/01/09 01:17:51;;;;;;;2.60;2.40;;;;;;;;;;5036250;28;20645;-67
2023/01/09 01:20:19;;;;;;;2.80;2.60;;;;;;;;;;5036027;28;20205;-67
2023/01/09 01:22:46;;;;;;;2.65;2.25;;;;;;;;;;5036138;28;20206;-67
2023/01/09 01:25:16;;;;;;;3.40;2.67;;;;;;;;;;5036558;28;20540;-67
2023/01/09 01:27:43;;;;;;;3.03;2.55;;;;;;;;;;5036317;28;20227;-67
2023/01/09 01:30:12;;;;;;;3.35;2.80;;;;;;;;;;5035740;28;20201;-66
2023/01/09 01:32:39;;;;;;;2.95;2.65;;;;;;;;;;5035972;28;20293;-66
2023/01/09 01:35:07;;;;;;;3.08;2.63;;;;;;;;;;5036461;28;20192;-66
2023/01/09 01:37:34;;;;;;;4.67;2.60;;;;;;;;;;5035892;28;20213;-66
2023/01/09 01:40:01;;;;;;;2.42;2.22;;;;;;;;;;5036009;28;20454;-66
2023/01/09 01:42:30;;;;;;;4.18;2.28;;;;;;;;;;5035495;28;20246;-67
2023/01/09 01:45:09;;;;;;;4.43;2.67;;;;;;;;;;5036519;28;20206;-67
2023/01/09 01:47:46;;;;;;;2.53;2.33;;;;;;;;;;5036063;28;20187;-67
2023/01/09 01:50:17;;;;;;;4.20;2.80;;;;;;;;;;5035747;28;20274;-67
2023/01/09 01:52:45;;;;;;;2.80;2.25;;;;;;;;;;5035374;28;20441;-67
2023/01/09 01:55:13;;;;;;;4.00;1.90;;;;;;;;;;5035678;28;20221;-67
2023/01/09 01:57:43;;;;;;;2.10;2.00;;;;;;;;;;5035207;28;20645;-67
2023/01/09 02:00:12;;;;;;;5.07;2.57;;;;;;;;;;5036023;28;20188;-67
2023/01/09 02:02:39;;;;;;;2.70;2.50;;;;;;;;;;5035421;28;20442;-68
2023/01/09 02:05:07;;;;;;;2.30;2.10;;;;;;;;;;5035448;28;20192;-68
2023/01/09 02:07:34;;;;;;;6.25;4.82;;;;;;;;;;5035446;28;20204;-68
2023/01/09 02:10:01;;;;;;;2.20;2.10;;;;;;;;;;5035176;28;20322;-68
2023/01/09 02:12:28;;;;;;;4.75;3.38;;;;;;;;;;5035561;28;20218;-68
2023/01/09 02:14:58;;;;;;;2.75;2.47;;;;;;;;;;5034976;28;20215;-67
2023/01/09 02:17:33;;;;;;;5.10;2.28;;;;;;;;;;5035725;28;20188;-68
2023/01/09 02:20:14;;;;;;;2.00;1.90;;;;;;;;;;5035729;28;20205;-67
2023/01/09 02:22:46;;;;;;;3.45;3.15;;;;;;;;;;5035513;28;20441;-68
2023/01/09 02:25:25;;;;;;;3.08;2.63;;;;;;;;;;5035539;28;20184;-68
2023/01/09 02:28:20;;;;;;;3.67;2.63;;;;;;;;;;5034667;28;20605;-68
2023/01/09 02:30:51;;;;;;;4.60;3.80;;;;;;;;;;5035754;28;20213;-67
2023/01/09 02:33:25;;;;;;;4.20;3.80;;;;;;;;;;5035110;28;20190;-68
2023/01/09 02:35:55;;;;;;;3.03;2.53;;;;;;;;;;5034634;28;20934;-68
2023/01/09 02:38:27;;;;;;;4.00;2.80;;;;;;;;;;5034475;28;20206;-68
2023/01/09 02:40:57;;;;;;;3.08;2.88;;;;;;;;;;5034406;28;20214;-67
2023/01/09 02:43:25;;;;;;;4.28;3.97;;;;;;;;;;5034355;28;20204;-67
2023/01/09 02:45:54;;;;;;;3.70;3.40;;;;;;;;;;5034677;28;20210;-67
2023/01/09 02:48:21;;;;;;;3.90;3.53;;;;;;;;;;5034547;28;20192;-67
2023/01/09 02:50:50;;;;;;;3.65;3.35;;;;;;;;;;5034687;28;20226;-67
2023/01/09 02:53:30;;;;;;;3.78;2.65;;;;;;;;;;5034918;28;20202;-67
2023/01/09 02:56:03;;;;;;;2.90;2.70;;;;;;;;;;5034885;28;20562;-67
2023/01/09 02:58:35;;;;;;;3.78;3.40;;;;;;;;;;5034559;28;20210;-67
2023/01/09 03:01:10;;;;;;;4.03;3.15;;;;;;;;;;5034136;28;20188;-67
2023/01/09 03:03:39;;;;;;;5.78;3.00;;;;;;;;;;5033958;28;20218;-67
2023/01/09 03:06:09;;;;;;;5.60;3.15;;;;;;;;;;5034004;28;20195;-67
2023/01/09 03:08:38;;;;;;;4.65;3.05;;;;;;;;;;5034456;28;20221;-67
2023/01/09 03:11:07;;;;;;;8.00;3.55;;;;;;;;;;5033866;28;20242;-67
2023/01/09 03:13:39;;;;;;;3.53;3.22;;;;;;;;;;5033788;28;20191;-67
2023/01/09 03:16:09;;;;;;;3.10;2.90;;;;;;;;;;5034148;28;20281;-67
2023/01/09 03:18:37;;;;;;;3.95;3.25;;;;;;;;;;5033887;28;20195;-67
2023/01/09 03:21:05;;;;;;;5.05;3.78;;;;;;;;;;5033747;28;20203;-67
2023/01/09 03:23:46;;;;;;;3.80;3.38;;;;;;;;;;5033877;28;20199;-67
2023/01/09 03:26:13;;;;;;;4.20;3.63;;;;;;;;;;5034328;28;20190;-67
2023/01/09 03:28:40;;;;;;;9.20;4.40;;;;;;;;;;5033782;28;20282;-67
2023/01/09 03:31:09;;;;;;;5.80;4.82;;;;;;;;;;5033783;28;20241;-67
2023/01/09 03:33:36;;;;;;;5.10;4.10;;;;;;;;;;5033458;28;20195;-67
2023/01/09 03:36:04;;;;;;;8.15;5.00;;;;;;;;;;5033782;28;20192;-67
2023/01/09 03:38:31;;;;;;;4.80;4.35;;;;;;;;;;5033675;28;20286;-67
2023/01/09 03:40:58;;;;;;;6.28;5.15;;;;;;;;;;5033966;28;20206;-67
2023/01/09 03:43:25;;;;;;;10.93;5.75;;;;;;;;;;5033637;28;20634;-66
2023/01/09 03:45:53;;;;;;;6.00;4.50;;;;;;;;;;5033317;28;20202;-66
2023/01/09 03:48:21;;;;;;;6.32;4.93;;;;;;;;;;5034023;28;20573;-67
2023/01/09 03:50:49;;;;;;;7.70;4.65;;;;;;;;;;5033215;28;20203;-66
2023/01/09 03:53:17;;;;;;;6.75;4.63;;;;;;;;;;5033464;28;20191;-67
2023/01/09 03:55:44;;;;;;;6.55;4.43;;;;;;;;;;5033158;28;20205;-66
2023/01/09 03:58:12;;;;;;;4.88;4.30;;;;;;;;;;5033916;28;20207;-67
2023/01/09 04:00:39;;;;;;;6.07;3.83;;;;;;;;;;5033724;28;20195;-66
2023/01/09 04:03:06;;;;;;;6.28;4.00;;;;;;;;;;5033089;28;20207;-67
2023/01/09 04:05:35;;;;;;;6.38;4.30;;;;;;;;;;5033453;28;20201;-66
2023/01/09 04:08:02;;;;;;;4.95;3.65;;;;;;;;;;5046303;28;20200;-67
2023/01/09 04:10:29;;;;;;;6.05;3.60;;;;;;;;;;5052925;28;20227;-67
2023/01/09 04:12:57;;;;;;;3.90;3.15;;;;;;;;;;5052834;28;20222;-67
2023/01/09 04:15:24;;;;;;;2.88;2.58;;;;;;;;;;5052779;28;20214;-67
2023/01/09 04:17:51;;;;;;;6.07;4.03;;;;;;;;;;5053884;28;20609;-67
2023/01/09 04:20:19;;;;;;;5.40;3.00;;;;;;;;;;5053119;28;20213;-67
2023/01/09 04:22:48;;;;;;;3.42;2.72;;;;;;;;;;5053162;28;20218;-67
2023/01/09 04:25:15;;;;;;;4.93;3.10;;;;;;;;;;5052685;28;20202;-66
2023/01/09 04:27:43;;;;;;;6.20;3.90;;;;;;;;;;5053107;28;20202;-67
2023/01/09 04:30:10;;;;;;;4.22;2.95;;;;;;;;;;5056803;28;20191;-67
2023/01/09 04:32:37;;;;;;;5.03;3.05;;;;;;;;;;5056968;28;20218;-66
2023/01/09 04:35:05;;;;;;;4.97;3.08;;;;;;;;;;5057093;28;20205;-70
2023/01/09 04:37:34;;;;;;;5.05;3.47;;;;;;;;;;5056640;28;20202;-66
2023/01/09 04:40:05;;;;;;;3.75;2.92;;;;;;;;;;5056906;28;20201;-66
2023/01/09 04:42:32;;;;;;;7.75;3.58;;;;;;;;;;5056560;28;20195;-67
2023/01/09 04:45:00;;;;;;;6.63;4.80;;;;;;;;;;5056424;28;20211;-67
2023/01/09 04:47:27;;;;;;;5.18;4.15;;;;;;;;;;5056792;28;20286;-67
2023/01/09 04:49:54;;;;;;;4.60;3.60;;;;;;;;;;5056684;28;20610;-67
2023/01/09 04:52:21;;;;;;;9.32;4.25;;;;;;;;;;5056593;28;20575;-67
2023/01/09 04:54:48;;;;;;;7.20;4.55;;;;;;;;;;5037975;28;20200;-67
2023/01/09 04:57:17;;;;;;;9.27;4.00;;;;;;;;;;5035921;28;20206;-67
2023/01/09 04:59:44;;;;;;;4.47;3.78;;;;;;;;;;5035662;28;20417;-67
2023/01/09 05:02:11;;;;;;;5.88;4.10;;;;;;;;;;5035674;28;20202;-67
2023/01/09 05:04:38;;;;;;;6.55;4.32;;;;;;;;;;5035822;28;20191;-67
2023/01/09 05:07:06;;;;;;;5.10;4.07;;;;;;;;;;5036051;28;20208;-67
2023/01/09 05:09:33;;;;;;;7.47;4.40;;;;;;;;;;5035432;28;20199;-67
2023/01/09 05:12:00;;;;;;;5.93;3.65;;;;;;;;;;5035467;28;20219;-67
2023/01/09 05:14:29;;;;;;;5.93;3.95;;;;;;;;;;5036132;28;20210;-68
2023/01/09 05:16:56;;;;;;;8.82;4.88;;;;;;;;;;5035981;28;20198;-69
2023/01/09 05:19:23;;;;;;;6.07;4.78;;;;;;;;;;5035924;28;20290;-67
2023/01/09 05:21:50;;;;;;;5.80;5.15;;;;;;;;;;5035628;28;20257;-67
2023/01/09 05:24:17;;;;;;;5.35;4.85;;;;;;;;;;5035667;28;20195;-67
2023/01/09 05:26:45;;;;;;;7.47;4.72;;;;;;;;;;5036110;28;20209;-67
2023/01/09 05:29:12;;;;;;;10.40;5.43;;;;;;;;;;5035938;28;20278;-67
2023/01/09 05:31:40;;;;;;;19.67;6.88;;;;;;;;;;5035820;28;20542;-67
2023/01/09 05:34:08;;;;;;;6.60;5.80;;;;;;;;;;5036283;28;20196;-66
2023/01/09 05:36:35;;;;;;;10.77;6.35;;;;;;;;;;5035801;28;20294;-67
2023/01/09 05:39:02;;;;;;;9.95;7.80;;;;;;;;;;5035664;28;20195;-67
2023/01/09 05:41:29;;;;;;;10.25;7.57;;;;;;;;;;5034871;28;20203;-67
2023/01/09 05:43:57;;;;;;;15.43;11.18;;;;;;;;;;5035695;28;20290;-67
2023/01/09 05:46:24;;;;;;;8.80;7.90;;;;;;;;;;5035336;28;20196;-67
2023/01/09 05:48:52;;;;;;;13.05;8.45;;;;;;;;;;5035267;28;20199;-67
2023/01/09 05:51:20;;;;;;;11.68;8.63;;;;;;;;;;5035650;28;20191;-67
2023/01/09 05:53:47;;;;;;;9.18;8.35;;;;;;;;;;5035455;28;20233;-67
2023/01/09 05:56:14;;;;;;;13.18;8.45;;;;;;;;;;5035620;28;20196;-67
2023/01/09 05:58:41;;;;;;;10.87;7.70;;;;;;;;;;5035486;28;20195;-67
2023/01/09 06:01:08;;;;;;;14.18;9.20;;;;;;;;;;5035236;28;20479;-67
2023/01/09 06:03:36;;;;;;;14.23;8.77;;;;;;;;;;5035659;28;20199;-66
2023/01/09 06:06:04;;;;;;;10.00;6.75;;;;;;;;;;5035048;28;20195;-67
2023/01/09 06:08:31;;;;;;;8.73;6.45;;;;;;;;;;5035320;28;20204;-65
2023/01/09 06:10:59;;;;;;;9.05;7.03;;;;;;;;;;5035027;28;20230;-65
2023/01/09 06:13:26;;;;;;;13.32;6.68;;;;;;;;;;5034901;28;20693;-65
2023/01/09 06:15:53;;;;;;;13.77;5.65;;;;;;;;;;5035056;28;20285;-65
2023/01/09 06:18:20;;;;;;;6.93;5.75;;;;;;;;;;5034994;28;20697;-65
2023/01/09 06:20:48;;;;;;;11.77;5.47;;;;;;;;;;5035372;28;20195;-65
2023/01/09 06:23:16;;;;;;;9.50;5.90;;;;;;;;;;5034812;28;20675;-65
2023/01/09 06:25:43;;;;;;;10.70;5.40;;;;;;;;;;5035019;28;20203;-65
2023/01/09 06:28:10;;;;;;;6.45;4.60;;;;;;;;;;5034730;28;20203;-65
2023/01/09 06:30:38;;;;;;;6.50;4.50;;;;;;;;;;5034883;28;20553;-65
2023/01/09 06:33:05;;;;;;;4.70;3.95;;;;;;;;;;5035080;28;20215;-65
2023/01/09 06:35:32;;;;;;;9.20;3.95;;;;;;;;;;5034471;28;20195;-65
2023/01/09 06:38:01;;;;;;;11.25;4.00;;;;;;;;;;5034521;28;20201;-65
2023/01/09 06:40:30;;;;;;;8.65;4.03;;;;;;;;;;5034942;28;20230;-65
2023/01/09 06:42:57;;;;;;;5.22;3.55;;;;;;;;;;5034707;28;20200;-65
2023/01/09 06:45:24;;;;;;;3.97;3.55;;;;;;;;;;5034552;28;20195;-66
2023/01/09 06:47:51;;;;;;;5.03;4.03;;;;;;;;;;5034320;28;20210;-65
2023/01/09 06:50:19;;;;;;;5.18;3.10;;;;;;;;;;5034605;28;20199;-65
2023/01/09 06:52:46;;;;;;;8.02;3.20;;;;;;;;;;5033323;28;20228;-65
2023/01/09 06:55:13;;;;;;;5.75;2.78;;;;;;;;;;5034519;28;20202;-65
2023/01/09 06:57:42;;;;;;;12.32;3.75;;;;;;;;;;5034413;28;20201;-65
2023/01/09 07:00:09;;;;;;;3.90;3.10;;;;;;;;;;5034398;28;20203;-65
2023/01/09 07:02:37;;;;;;;5.30;2.95;;;;;;;;;;5034151;28;20218;-65
2023/01/09 07:05:07;;;;;;;4.18;2.83;;;;;;;;;;5034823;28;20211;-65
2023/01/09 07:07:34;;;;;;;8.13;2.80;;;;;;;;;;5034099;28;20245;-65
2023/01/09 07:10:01;;;;;;;7.63;3.20;;;;;;;;;;5033705;28;20227;-66
2023/01/09 07:12:28;;;;;;;6.20;3.25;;;;;;;;;;5033661;28;20226;-65
2023/01/09 07:14:57;;;;;;;3.95;2.20;;;;;;;;;;5033799;28;20207;-65
2023/01/09 07:17:24;;;;;;;6.28;2.85;;;;;;;;;;5034115;28;20202;-66
2023/01/09 07:19:51;;;;;;;4.75;2.72;;;;;;;;;;5033773;28;20195;-65
2023/01/09 07:22:19;;;;;;;4.63;1.98;;;;;;;;;;5034009;28;20207;-65
2023/01/09 07:24:47;;;;;;;9.65;2.30;;;;;;;;;;5033929;28;20241;-65
2023/01/09 07:27:14;;;;;;;3.65;2.15;;;;;;;;;;5033454;28;20200;-65
2023/01/09 07:29:41;;;;;;;4.95;2.28;;;;;;;;;;5033725;28;20195;-65
2023/01/09 07:32:10;;;;;;;6.90;2.25;;;;;;;;;;5033327;28;20205;-65
2023/01/09 07:34:37;;;;;;;4.75;2.00;;;;;;;;;;5034149;28;20199;-65
2023/01/09 07:37:04;;;;;;;2.60;2.25;;;;;;;;;;5033651;28;20202;-65
2023/01/09 07:39:31;;;;;;;5.07;2.42;;;;;;;;;;5033528;28;20202;-65
2023/01/09 07:41:59;;;;;;;5.10;2.53;;;;;;;;;;5033216;28;20200;-65
2023/01/09 07:44:26;;;;;;;3.33;2.17;;;;;;;;;;5033685;28;20199;-65
2023/01/09 07:46:53;;;;;;;4.57;2.35;;;;;;;;;;5033263;28;20457;-65
2023/01/09 07:49:21;;;;;;;3.53;3.15;;;;;;;;;;5033303;28;20661;-65
2023/01/09 07:51:49;;;;;;;5.38;2.40;;;;;;;;;;5033474;28;20204;-65
2023/01/09 07:54:16;;;;;;;3.08;2.53;;;;;;;;;;5033182;28;20706;-65
2023/01/09 07:56:43;;;;;;;5.18;2.58;;;;;;;;;;5033489;28;20196;-65
2023/01/09 07:59:10;;;;;;;6.10;2.70;;;;;;;;;;5033182;28;20290;-65
2023/01/09 08:01:38;;;;;;;5.10;3.17;;;;;;;;;;5033044;28;20195;-65
2023/01/09 08:04:05;;;;;;;3.47;2.45;;;;;;;;;;5033327;28;20568;-65
2023/01/09 08:06:33;;;;;;;11.10;2.88;;;;;;;;;;5032963;28;20298;-65
2023/01/09 08:09:00;;;;;;;6.50;2.80;;;;;;;;;;5033683;28;20226;-65
2023/01/09 08:11:28;;;;;;;4.85;2.40;;;;;;;;;;5033399;28;20317;-65
2023/01/09 08:13:55;;;;;;;4.18;2.22;;;;;;;;;;5032938;28;20680;-65
2023/01/09 08:16:22;;;;;;;7.55;2.35;;;;;;;;;;5033267;28;20202;-65
2023/01/09 08:18:49;;;;;;;5.50;2.22;;;;;;;;;;5033182;28;20191;-65
2023/01/09 08:21:16;;;;;;;7.70;2.90;;;;;;;;;;5033377;28;20555;-66
2023/01/09 08:23:45;;;;;;;4.22;2.30;;;;;;;;;;5032877;28;20199;-65
2023/01/09 08:26:12;;;;;;;4.10;2.55;;;;;;;;;;5033514;28;20192;-65
2023/01/09 08:28:39;;;;;;;9.40;3.47;;;;;;;;;;5033162;28;20290;-65
2023/01/09 08:31:07;;;;;;;4.40;3.22;;;;;;;;;;5033098;28;20241;-65
2023/01/09 08:33:34;;;;;;;3.55;1.90;;;;;;;;;;5032752;28;20229;-65
2023/01/09 08:36:01;;;;;;;6.38;2.33;;;;;;;;;;5033536;28;20676;-66
2023/01/09 08:38:28;;;;;;;7.22;2.65;;;;;;;;;;5032702;28;20290;-66
2023/01/09 08:40:57;;;;;;;7.15;2.60;;;;;;;;;;5033458;28;20195;-65
2023/01/09 08:48:58;;;;;;;6.88;2.78;;;;;;;;;;5032758;28;20191;-66
2023/01/09 08:51:25;;;;;;;4.47;2.80;;;;;;;;;;5033273;28;20235;-66
2023/01/09 08:53:53;;;;;;;8.30;2.75;;;;;;;;;;5032437;28;20298;-66
2023/01/09 08:56:21;;;;;;;8.77;2.90;;;;;;;;;;5032952;28;20654;-65
2023/01/09 08:58:48;;;;;;;5.13;2.60;;;;;;;;;;5032500;28;20200;-66
2023/01/09 09:01:16;;;;;;;6.13;2.33;;;;;;;;;;5032962;28;20624;-65
2023/01/09 09:03:43;;;;;;;6.22;2.17;;;;;;;;;;5032538;28;20196;-65
2023/01/09 09:06:10;;;;;;;6.33;2.70;;;;;;;;;;5033084;28;20202;-65
2023/01/09 09:08:37;;;;;;;5.15;2.75;;;;;;;;;;5032678;28;20445;-67
2023/01/09 09:11:04;;;;;;;8.93;2.47;;;;;;;;;;5032804;28;20223;-65
2023/01/09 09:13:33;;;;;;;5.47;2.72;;;;;;;;;;5032275;28;20478;-65
2023/01/09 09:16:00;;;;;;;6.20;2.45;;;;;;;;;;5034085;28;20202;-65
2023/01/09 09:18:27;;;;;;;7.88;2.28;;;;;;;;;;5035947;28;20206;-65
2023/01/09 09:20:54;;;;;;;6.95;2.25;;;;;;;;;;5036041;28;20206;-65
2023/01/09 09:23:22;;;;;;;6.97;2.60;;;;;;;;;;5036200;28;20234;-65
2023/01/09 09:25:49;;;;;;;5.97;2.58;;;;;;;;;;5036341;28;20198;-65
2023/01/09 09:28:17;;;;;;;7.97;2.42;;;;;;;;;;5035852;28;20201;-65
2023/01/09 09:30:45;;;;;;;8.75;3.28;;;;;;;;;;5036349;28;20316;-65
2023/01/09 09:33:12;;;;;;;6.82;2.08;;;;;;;;;;5035672;28;20225;-65
2023/01/09 09:35:40;;;;;;;4.30;2.75;;;;;;;;;;5035826;28;20203;-65
2023/01/09 09:38:07;;;;;;;5.53;2.73;;;;;;;;;;5036247;28;20202;-65
2023/01/09 09:40:48;;;;;;;10.60;3.53;;;;;;;;;;5035627;28;21015;-65
2023/01/09 09:46:22;;;;;;;3.03;2.00;;;;;;;;;;5000136;28;20195;-65
2023/01/09 09:48:52;;;;;;;3.50;2.93;;;;;;;;;;5035761;28;20435;-65
2023/01/09 09:51:40;;;;;;;5.07;2.33;;;;;;;;;;5035412;28;20936;-65
2023/01/09 09:54:10;;;;;;;4.82;2.50;;;;;;;;;;5032380;28;20822;-65
2023/01/09 09:56:41;;;;;;;6.05;3.22;;;;;;;;;;5035999;28;20531;-65
2023/01/09 09:59:11;;;;;;;7.07;2.72;;;;;;;;;;5035958;28;20206;-65
2023/01/09 10:01:41;;;;;;;5.05;2.40;;;;;;;;;;5036214;28;20184;-65
2023/01/09 10:04:11;;;;;;;10.53;2.90;;;;;;;;;;5034982;28;20683;-65
2023/01/09 10:06:41;;;;;;;5.05;3.80;;;;;;;;;;5035925;28;20439;-65
2023/01/09 10:09:18;;;;;;;4.57;2.70;;;;;;;;;;5036000;28;20188;-65
2023/01/09 10:11:48;;;;;;;9.02;2.70;;;;;;;;;;5036019;28;20231;-65
2023/01/09 10:14:15;;;;;;;6.35;2.78;;;;;;;;;;5035592;28;20207;-65
2023/01/09 10:16:50;;;;;;;4.00;2.88;;;;;;;;;;5035782;28;20191;-65
2023/01/09 10:19:25;;;;;;;3.43;2.03;;;;;;;;;;5035405;28;20557;-65
2023/01/09 10:21:57;;;;;;;10.00;2.83;;;;;;;;;;5035890;28;20422;-65
2023/01/09 10:24:34;;;;;;;4.05;2.50;;;;;;;;;;5035106;28;20442;-65
2023/01/09 10:27:03;;;;;;;4.68;2.80;;;;;;;;;;5034859;28;20278;-65
2023/01/09 10:29:52;;;;;;;6.68;2.47;;;;;;;;;;5034801;28;20191;-65
2023/01/09 10:32:28;;;;;;;3.00;2.63;;;;;;;;;;5034684;28;20184;-65
2023/01/09 10:35:02;;;;;;;5.18;2.90;;;;;;;;;;5034859;28;20305;-65
2023/01/09 10:37:32;;;;;;;6.78;3.30;;;;;;;;;;5034876;28;20270;-65
2023/01/09 10:40:00;;;;;;;6.30;3.10;;;;;;;;;;5035115;28;20226;-64
2023/01/09 10:42:32;;;;;;;10.63;3.30;;;;;;;;;;5034752;28;20438;-64
2023/01/09 10:45:04;;;;;;;3.70;2.40;;;;;;;;;;5034879;28;20633;-65
2023/01/09 10:47:33;;;;;;;7.55;2.85;;;;;;;;;;5034453;28;20279;-65
2023/01/09 10:50:02;;;;;;;7.10;2.90;;;;;;;;;;5034266;28;20680;-65
2023/01/09 10:52:33;;;;;;;7.38;2.70;;;;;;;;;;5035082;28;20442;-65
2023/01/09 10:55:04;;;;;;;8.10;3.50;;;;;;;;;;5034759;28;20215;-65
2023/01/09 10:57:44;;;;;;;8.80;3.40;;;;;;;;;;5034508;28;20221;-65
2023/01/09 11:00:16;;;;;;;8.93;3.67;;;;;;;;;;5034025;28;20209;-65
2023/01/09 11:02:45;;;;;;;7.55;3.85;;;;;;;;;;5034463;28;20196;-64
2023/01/09 11:05:14;;;;;;;6.70;3.15;;;;;;;;;;5034083;28;20704;-65
2023/01/09 11:07:42;;;;;;;6.43;3.45;;;;;;;;;;5034301;28;20553;-64
2023/01/09 11:10:10;;;;;;;6.85;3.80;;;;;;;;;;5034110;28;20242;-65
2023/01/09 11:12:38;;;;;;;9.27;3.78;;;;;;;;;;5034422;28;20199;-66
2023/01/09 11:15:27;;;;;;;7.53;3.88;;;;;;;;;;5033933;28;20688;-65
2023/01/09 11:17:58;;;;;;;7.20;3.38;;;;;;;;;;5034133;28;20238;-65
2023/01/09 11:20:26;;;;;;;10.25;3.78;;;;;;;;;;5034310;28;20275;-65
2023/01/09 11:22:55;;;;;;;5.27;3.63;;;;;;;;;;5033774;28;20665;-65
2023/01/09 11:25:24;;;;;;;5.72;3.42;;;;;;;;;;5034285;28;20461;-65
2023/01/09 11:28:05;;;;;;;9.25;3.72;;;;;;;;;;5033708;28;20198;-65
2023/01/09 11:30:33;;;;;;;7.18;3.60;;;;;;;;;;5033589;28;20187;-65
2023/01/09 11:33:01;;;;;;;9.35;3.75;;;;;;;;;;5034206;28;20612;-64
2023/01/09 11:35:30;;;;;;;7.82;3.15;;;;;;;;;;5033697;28;20226;-64
2023/01/09 11:38:00;;;;;;;8.82;3.53;;;;;;;;;;5033215;28;20192;-65
2023/01/09 11:40:29;;;;;;;9.48;3.30;;;;;;;;;;5033726;28;20210;-64
2023/01/09 11:43:12;;;;;;;5.72;3.42;;;;;;;;;;5033828;28;20217;-64
2023/01/09 11:45:43;;;;;;;8.13;3.30;;;;;;;;;;5033932;28;20619;-65
2023/01/09 11:48:18;;;;;;;5.03;3.60;;;;;;;;;;5034413;28;20526;-65
2023/01/09 11:50:54;;;;;;;8.90;4.20;;;;;;;;;;5033863;28;20184;-65
2023/01/09 11:53:21;;;;;;;3.70;3.30;;;;;;;;;;5033900;28;20633;-65
2023/01/09 11:55:54;;;;;;;7.75;3.63;;;;;;;;;;5033611;28;20389;-65
2023/01/09 11:58:22;;;;;;;3.42;3.15;;;;;;;;;;5033332;28;20183;-65
2023/01/09 12:00:54;;;;;;;4.78;3.55;;;;;;;;;;5033441;28;20192;-66
2023/01/09 12:03:30;;;;;;;4.88;2.80;;;;;;;;;;5034086;28;20257;-66
2023/01/09 12:06:00;;;;;;;4.75;2.95;;;;;;;;;;5033694;28;20183;-66
2023/01/09 12:08:34;;;;;;;3.73;3.47;;;;;;;;;;5033075;28;20637;-66
2023/01/09 12:11:07;;;;;;;7.45;2.90;;;;;;;;;;5033418;28;20474;-65
2023/01/09 12:13:41;;;;;;;4.37;2.80;;;;;;;;;;5032969;28;20190;-66
2023/01/09 12:16:11;;;;;;;5.70;2.50;;;;;;;;;;5033496;28;20485;-65
2023/01/09 12:18:51;;;;;;;3.33;2.50;;;;;;;;;;5033546;28;20183;-65
2023/01/09 12:21:26;;;;;;;2.88;2.42;;;;;;;;;;5032914;28;20190;-65
2023/01/09 12:24:11;;;;;;;8.05;2.60;;;;;;;;;;5033222;28;20197;-65
2023/01/09 12:26:42;;;;;;;3.10;2.55;;;;;;;;;;5032771;28;20201;-65
2023/01/09 12:29:16;;;;;;;3.10;2.60;;;;;;;;;;5033577;28;20191;-65
2023/01/09 12:31:53;;;;;;;6.82;3.15;;;;;;;;;;5032813;28;20190;-66
2023/01/09 12:34:29;;;;;;;3.92;3.30;;;;;;;;;;5032835;28;20211;-65
2023/01/09 12:37:03;;;;;;;5.75;2.85;;;;;;;;;;5033117;28;20191;-65
2023/01/09 12:39:33;;;;;;;4.68;2.80;;;;;;;;;;5033416;28;20216;-65
2023/01/09 12:42:09;;;;;;;3.90;3.57;;;;;;;;;;5032973;28;20210;-65
2023/01/09 12:44:45;;;;;;;5.60;3.17;;;;;;;;;;5033029;28;20438;-65
2023/01/09 12:47:29;;;;;;;5.07;3.08;;;;;;;;;;5033104;28;20191;-65
2023/01/09 12:50:00;;;;;;;5.40;2.35;;;;;;;;;;5035031;28;20184;-65
2023/01/09 12:52:31;;;;;;;10.15;3.30;;;;;;;;;;5036859;28;20195;-65
2023/01/09 12:55:01;;;;;;;4.57;3.60;;;;;;;;;;5036392;28;20204;-66
2023/01/09 12:57:30;;;;;;;5.95;3.40;;;;;;;;;;5036355;28;20430;-65
2023/01/09 12:59:59;;;;;;;4.70;2.75;;;;;;;;;;5036404;28;20227;-65
2023/01/09 13:02:31;;;;;;;6.18;3.00;;;;;;;;;;5036670;28;20195;-65
2023/01/09 13:05:01;;;;;;;8.93;3.15;;;;;;;;;;5036457;28;20188;-65
2023/01/09 13:07:30;;;;;;;3.33;2.97;;;;;;;;;;5036638;28;20547;-65
2023/01/09 13:10:00;;;;;;;6.22;3.83;;;;;;;;;;5036206;28;20230;-65
2023/01/09 13:12:28;;;;;;;3.35;2.55;;;;;;;;;;5036145;28;20210;-65
2023/01/09 13:14:57;;;;;;;6.55;2.80;;;;;;;;;;5036410;28;20219;-65
2023/01/09 13:17:28;;;;;;;5.70;3.08;;;;;;;;;;5036555;28;20223;-65
2023/01/09 13:19:55;;;;;;;3.88;2.88;;;;;;;;;;5036748;28;20184;-65
2023/01/09 13:22:26;;;;;;;4.45;2.78;;;;;;;;;;5035977;28;20675;-65
2023/01/09 13:25:11;;;;;;;5.32;2.80;;;;;;;;;;5036324;28;20204;-65
2023/01/09 13:27:40;;;;;;;4.28;3.30;;;;;;;;;;5029343;28;20286;-65
2023/01/09 13:30:15;;;;;;;3.72;2.83;;;;;;;;;;5036292;28;20205;-65
2023/01/09 13:32:49;;;;;;;7.13;3.13;;;;;;;;;;5035858;28;20637;-65
2023/01/09 13:35:17;;;;;;;3.55;3.25;;;;;;;;;;5036628;28;20819;-65
2023/01/09 13:37:50;;;;;;;2.58;2.38;;;;;;;;;;5036071;28;20199;-65
2023/01/09 13:40:28;;;;;;;5.40;3.00;;;;;;;;;;5035916;28;20206;-65
2023/01/09 13:42:55;;;;;;;3.60;2.80;;;;;;;;;;5035904;28;20434;-66
2023/01/09 13:45:24;;;;;;;7.10;2.73;;;;;;;;;;5035907;28;20450;-65
2023/01/09 13:48:06;;;;;;;5.53;3.00;;;;;;;;;;5035598;28;20950;-66
2023/01/09 13:50:33;;;;;;;6.47;3.50;;;;;;;;;;5035723;28;20191;-66
2023/01/09 13:53:26;;;;;;;2.92;2.72;;;;;;;;;;5035754;28;20442;-65
2023/01/09 13:56:04;;;;;;;8.90;3.53;;;;;;;;;;5035075;28;20223;-74
2023/01/09 13:58:32;;;;;;;4.20;3.28;;;;;;;;;;5035387;28;20445;-66
2023/01/09 14:01:00;;;;;;;6.30;3.65;;;;;;;;;;5034707;28;20196;-66
2023/01/09 14:03:31;;;;;;;3.50;3.20;;;;;;;;;;5035499;28;20214;-67
2023/01/09 14:06:19;;;;;;;3.70;3.38;;;;;;;;;;5035271;28;20461;-69
2023/01/09 14:08:49;;;;;;;3.72;2.78;;;;;;;;;;5035003;28;20274;-67
2023/01/09 14:11:21;;;;;;;5.35;3.15;;;;;;;;;;5035365;28;20743;-67
2023/01/09 14:13:53;;;;;;;5.00;3.20;;;;;;;;;;5035076;28;20671;-66
2023/01/09 14:16:22;;;;;;;11.13;3.45;;;;;;;;;;5034995;28;21005;-67
2023/01/09 14:18:51;;;;;;;4.88;3.45;;;;;;;;;;5039521;28;20192;-67
2023/01/09 14:21:18;;;;;;;5.10;3.75;;;;;;;;;;5053459;28;20234;-68
2023/01/09 14:23:52;;;;;;;7.78;3.95;;;;;;;;;;5034484;28;20290;-67
2023/01/09 14:26:20;;;;;;;9.93;3.85;;;;;;;;;;5034788;28;20191;-68
2023/01/09 14:28:48;;;;;;;7.43;4.20;;;;;;;;;;5034738;28;20206;-69
2023/01/09 14:31:28;;;;;;;4.53;2.70;;;;;;;;;;5034505;28;20257;-68
2023/01/09 14:34:10;;;;;;;4.70;3.67;;;;;;;;;;5034747;28;20183;-68
2023/01/09 14:36:37;;;;;;;4.95;4.30;;;;;;;;;;5033245;28;20283;-69
2023/01/09 14:39:09;;;;;;;5.75;4.35;;;;;;;;;;5034381;28;20290;-69
2023/01/09 14:44:26;;;;;;;11.10;5.40;;;;;;;;;;5034502;28;20222;-68
2023/01/09 14:46:55;;;;;;;13.68;5.63;;;;;;;;;;5034302;28;20241;-68
2023/01/09 14:49:27;;;;;;;9.25;5.78;;;;;;;;;;5034416;28;20238;-67
2023/01/09 14:51:54;;;;;;;16.27;6.63;;;;;;;;;;5034287;28;20198;-68
2023/01/09 14:54:27;;;;;;;7.57;4.78;;;;;;;;;;5034749;28;20621;-68
2023/01/09 14:56:55;;;;;;;8.88;5.25;;;;;;;;;;5034728;28;20184;-68
2023/01/09 14:59:22;;;;;;;4.88;4.03;;;;;;;;;;5034442;28;20192;-68
2023/01/09 15:01:54;;;;;;;11.48;5.38;;;;;;;;;;5034168;28;20210;-67
2023/01/09 15:04:24;;;;;;;9.15;4.95;;;;;;;;;;5034072;28;20192;-67
2023/01/09 15:06:51;;;;;;;7.72;5.30;;;;;;;;;;5034073;28;20630;-68
2023/01/09 15:09:22;;;;;;;7.80;5.80;;;;;;;;;;5034194;28;20221;-67